Time;durP1;ratioP1;P1;durP2;ratioP2;P2;SDS_P1;SDS_P2;PMS_P1;PMS_P2;Temp;Humidity;BMP_temperature;BMP_pressure;BME280_temperature;BME280_humidity;BME280_pressure;Samples;Min_cycle;Max_cycle;Signal;HPM_P1;HPM_P2
2022/11/08 00:03:33;;;;;;;4.53;1.38;;;;;;;;;;4990768;28;20119;-81
2022/11/08 00:14:10;;;;;;;4.40;1.50;;;;;;;;;;4994795;28;20049;-81
2022/11/08 00:16:35;;;;;;;6.28;1.70;;;;;;;;;;4980808;28;20033;-81
2022/11/08 00:19:00;;;;;;;4.90;1.63;;;;;;;;;;4969247;28;20494;-79
2022/11/08 00:21:26;;;;;;;5.07;1.30;;;;;;;;;;4962901;28;21196;-79
2022/11/08 00:23:52;;;;;;;5.15;1.60;;;;;;;;;;4964346;28;20528;-79
2022/11/08 00:26:17;;;;;;;3.78;1.48;;;;;;;;;;4967963;28;20033;-79
2022/11/08 00:28:42;;;;;;;3.70;1.40;;;;;;;;;;4966813;28;20044;-80
2022/11/08 00:31:08;;;;;;;4.18;1.60;;;;;;;;;;4984724;28;20048;-79
2022/11/08 00:33:33;;;;;;;3.55;1.40;;;;;;;;;;4984797;28;20104;-80
2022/11/08 00:35:59;;;;;;;4.43;1.60;;;;;;;;;;4974927;28;20037;-79
2022/11/08 00:38:25;;;;;;;5.22;1.50;;;;;;;;;;4990924;28;20038;-80
2022/11/08 00:40:50;;;;;;;2.80;1.17;;;;;;;;;;4966175;28;20044;-79
2022/11/08 00:43:16;;;;;;;5.18;1.38;;;;;;;;;;4980877;28;20049;-79
2022/11/08 00:45:41;;;;;;;5.10;1.55;;;;;;;;;;4971585;28;20134;-79
2022/11/08 00:48:06;;;;;;;4.97;1.30;;;;;;;;;;4968487;28;20394;-80
2022/11/08 00:50:32;;;;;;;6.05;1.60;;;;;;;;;;4976009;28;20034;-79
2022/11/08 00:52:57;;;;;;;5.20;1.63;;;;;;;;;;4985969;28;20030;-79
2022/11/08 00:55:22;;;;;;;4.75;1.90;;;;;;;;;;4996237;28;20041;-79
2022/11/08 00:57:48;;;;;;;3.67;1.40;;;;;;;;;;4976496;28;20041;-80
2022/11/08 01:00:13;;;;;;;4.97;1.52;;;;;;;;;;4969334;28;20393;-79
2022/11/08 01:02:39;;;;;;;3.88;1.60;;;;;;;;;;4967375;28;20039;-79
2022/11/08 01:05:04;;;;;;;4.85;1.42;;;;;;;;;;4982426;28;20061;-79
2022/11/08 01:07:30;;;;;;;6.43;2.15;;;;;;;;;;4994484;28;20121;-80
2022/11/08 01:09:55;;;;;;;2.65;1.25;;;;;;;;;;4976606;28;20520;-81
2022/11/08 01:12:20;;;;;;;5.22;1.52;;;;;;;;;;4967161;28;20037;-80
2022/11/08 01:14:46;;;;;;;3.35;1.50;;;;;;;;;;4969191;28;20446;-80
2022/11/08 01:17:11;;;;;;;3.75;1.20;;;;;;;;;;4967426;28;20745;-80
2022/11/08 01:19:36;;;;;;;3.30;1.35;;;;;;;;;;4980051;28;20042;-80
2022/11/08 01:22:01;;;;;;;4.53;1.48;;;;;;;;;;4965320;28;20034;-80
2022/11/08 01:24:27;;;;;;;4.35;1.52;;;;;;;;;;4973459;28;20041;-80
2022/11/08 01:26:55;;;;;;;4.97;1.50;;;;;;;;;;4972155;28;20096;-79
2022/11/08 01:29:23;;;;;;;5.03;1.20;;;;;;;;;;4972913;28;20038;-79
2022/11/08 01:31:51;;;;;;;4.85;1.60;;;;;;;;;;4972874;28;20037;-81
2022/11/08 01:34:16;;;;;;;4.20;1.58;;;;;;;;;;4973143;28;20061;-81
2022/11/08 01:36:41;;;;;;;4.68;1.50;;;;;;;;;;4995503;28;20469;-81
2022/11/08 01:39:07;;;;;;;2.83;1.30;;;;;;;;;;4982032;28;20123;-81
2022/11/08 01:41:32;;;;;;;6.10;1.60;;;;;;;;;;4965132;28;20047;-81
2022/11/08 01:43:58;;;;;;;3.72;1.30;;;;;;;;;;4969368;28;20393;-80
2022/11/08 01:46:26;;;;;;;3.05;1.38;;;;;;;;;;4979167;28;20037;-80
2022/11/08 01:49:24;;;;;;;3.13;1.23;;;;;;;;;;4980700;28;20401;-81
2022/11/08 01:51:59;;;;;;;4.57;1.48;;;;;;;;;;4980721;28;20038;-80
2022/11/08 01:54:31;;;;;;;3.55;1.30;;;;;;;;;;4973231;28;20030;-80
2022/11/08 01:56:58;;;;;;;3.85;1.48;;;;;;;;;;4967200;28;20446;-80
2022/11/08 01:59:23;;;;;;;3.95;1.30;;;;;;;;;;4988177;28;20045;-80
2022/11/08 02:01:48;;;;;;;3.15;1.35;;;;;;;;;;4988369;28;20034;-80
2022/11/08 02:04:14;;;;;;;4.85;1.58;;;;;;;;;;4971975;28;20069;-80
2022/11/08 02:06:40;;;;;;;4.18;1.33;;;;;;;;;;4990818;28;20045;-80
2022/11/08 02:09:07;;;;;;;3.97;1.27;;;;;;;;;;4970974;28;20478;-80
2022/11/08 02:11:33;;;;;;;5.82;1.67;;;;;;;;;;4998227;28;20034;-80
2022/11/08 02:13:59;;;;;;;3.85;1.42;;;;;;;;;;4965670;28;20076;-80
2022/11/08 02:16:24;;;;;;;2.88;1.40;;;;;;;;;;4982632;28;20034;-80
2022/11/08 02:18:50;;;;;;;3.60;1.35;;;;;;;;;;4967494;28;20038;-80
2022/11/08 02:21:15;;;;;;;3.42;1.40;;;;;;;;;;4986862;28;20400;-81
2022/11/08 02:23:50;;;;;;;6.57;1.63;;;;;;;;;;4995097;28;20123;-81
2022/11/08 02:26:18;;;;;;;3.50;1.40;;;;;;;;;;4974585;28;20045;-82
2022/11/08 02:28:45;;;;;;;3.45;1.40;;;;;;;;;;4981396;28;20042;-81
2022/11/08 02:31:11;;;;;;;3.80;1.40;;;;;;;;;;4970075;28;20038;-80
2022/11/08 02:33:38;;;;;;;6.38;1.42;;;;;;;;;;4971920;28;20026;-81
2022/11/08 02:36:04;;;;;;;2.90;1.30;;;;;;;;;;4988146;28;20033;-81
2022/11/08 02:38:30;;;;;;;4.28;1.70;;;;;;;;;;4981164;28;20470;-81
2022/11/08 02:40:56;;;;;;;5.78;1.48;;;;;;;;;;4974190;28;20837;-81
2022/11/08 02:43:23;;;;;;;4.57;1.92;;;;;;;;;;4983663;28;20088;-81
2022/11/08 02:45:49;;;;;;;3.05;1.30;;;;;;;;;;4988257;28;20038;-81
2022/11/08 02:48:15;;;;;;;3.05;1.50;;;;;;;;;;4963270;28;20460;-80
2022/11/08 02:50:40;;;;;;;3.95;1.55;;;;;;;;;;4969693;28;20076;-80
2022/11/08 02:53:06;;;;;;;12.13;1.95;;;;;;;;;;4991221;28;20558;-81
2022/11/08 02:55:33;;;;;;;4.65;1.48;;;;;;;;;;4987184;28;20033;-81
2022/11/08 02:57:59;;;;;;;3.70;1.52;;;;;;;;;;4973190;28;20137;-81
2022/11/08 03:00:24;;;;;;;4.38;1.83;;;;;;;;;;4975913;28;20129;-80
2022/11/08 03:02:54;;;;;;;3.53;1.70;;;;;;;;;;4979114;28;20126;-81
2022/11/08 03:05:19;;;;;;;2.92;1.40;;;;;;;;;;4992867;28;20048;-81
2022/11/08 03:07:45;;;;;;;4.97;1.52;;;;;;;;;;4987812;28;20042;-80
2022/11/08 03:10:11;;;;;;;4.13;1.50;;;;;;;;;;4986417;28;20485;-81
2022/11/08 03:12:37;;;;;;;4.38;1.48;;;;;;;;;;4952355;28;20592;-81
2022/11/08 03:15:03;;;;;;;3.50;1.48;;;;;;;;;;4977465;28;20042;-80
2022/11/08 03:17:29;;;;;;;5.53;1.65;;;;;;;;;;4980448;28;20034;-81
2022/11/08 03:19:55;;;;;;;6.35;1.80;;;;;;;;;;4980509;28;20042;-82
2022/11/08 03:22:20;;;;;;;4.20;1.73;;;;;;;;;;4970275;28;20037;-81
2022/11/08 03:24:45;;;;;;;5.43;1.48;;;;;;;;;;4981980;28;20056;-81
2022/11/08 03:27:12;;;;;;;4.53;1.65;;;;;;;;;;4976736;28;20037;-81
2022/11/08 03:29:38;;;;;;;4.15;1.65;;;;;;;;;;4980419;28;20066;-80
2022/11/08 03:32:03;;;;;;;4.45;1.65;;;;;;;;;;4964184;28;20486;-81
2022/11/08 03:34:31;;;;;;;4.55;1.50;;;;;;;;;;4971417;28;20037;-85
2022/11/08 03:36:57;;;;;;;3.70;1.45;;;;;;;;;;4994101;28;20112;-85
2022/11/08 03:39:22;;;;;;;6.30;1.88;;;;;;;;;;4977332;28;20113;-84
2022/11/08 03:41:47;;;;;;;5.60;1.58;;;;;;;;;;4970218;28;20085;-85
2022/11/08 03:44:13;;;;;;;4.78;1.65;;;;;;;;;;4983460;28;20590;-84
2022/11/08 03:46:38;;;;;;;3.65;1.50;;;;;;;;;;4992919;28;20069;-85
2022/11/08 03:49:03;;;;;;;6.88;2.22;;;;;;;;;;4971229;28;20061;-85
2022/11/08 03:51:29;;;;;;;5.93;1.50;;;;;;;;;;4978205;28;20070;-85
2022/11/08 03:53:54;;;;;;;2.92;1.40;;;;;;;;;;4972734;28;20030;-84
2022/11/08 03:56:19;;;;;;;5.53;1.58;;;;;;;;;;4979368;28;20038;-85
2022/11/08 03:58:45;;;;;;;6.68;2.08;;;;;;;;;;4988834;28;20042;-84
2022/11/08 04:01:13;;;;;;;5.47;1.80;;;;;;;;;;4984137;28;20486;-84
2022/11/08 04:03:38;;;;;;;5.38;2.00;;;;;;;;;;4987844;28;20409;-85
2022/11/08 04:06:04;;;;;;;5.45;1.88;;;;;;;;;;4966340;28;20043;-84
2022/11/08 04:08:30;;;;;;;5.47;1.52;;;;;;;;;;4966253;28;20038;-84
2022/11/08 04:10:56;;;;;;;5.15;1.85;;;;;;;;;;4982649;28;20049;-84
2022/11/08 04:16:06;;;;;;;5.90;1.90;;;;;;;;;;4986921;28;20452;-84
2022/11/08 04:21:23;;;;;;;4.15;1.50;;;;;;;;;;4994016;28;20041;-85
2022/11/08 04:23:50;;;;;;;5.53;1.95;;;;;;;;;;4986723;28;20038;-84
2022/11/08 04:26:17;;;;;;;7.30;2.10;;;;;;;;;;4991861;28;20036;-84
2022/11/08 04:28:42;;;;;;;5.03;1.90;;;;;;;;;;4995036;28;20045;-84
2022/11/08 04:31:12;;;;;;;7.30;1.90;;;;;;;;;;4992303;28;20038;-84
2022/11/08 04:33:37;;;;;;;5.20;2.28;;;;;;;;;;4981430;28;20682;-84
2022/11/08 04:36:05;;;;;;;5.47;2.00;;;;;;;;;;4977900;28;20034;-84
2022/11/08 04:38:31;;;;;;;4.78;1.80;;;;;;;;;;4969491;28;20034;-84
2022/11/08 04:41:03;;;;;;;4.35;2.10;;;;;;;;;;4978741;28;20405;-85
2022/11/08 04:43:29;;;;;;;6.30;2.30;;;;;;;;;;4985963;28;20038;-84
2022/11/08 04:46:06;;;;;;;4.20;1.92;;;;;;;;;;4978689;28;20482;-84
2022/11/08 04:48:31;;;;;;;5.20;2.07;;;;;;;;;;4976500;28;20122;-84
2022/11/08 04:51:08;;;;;;;4.35;2.08;;;;;;;;;;4984849;28;20125;-84
2022/11/08 04:53:33;;;;;;;5.70;1.88;;;;;;;;;;4973910;28;20065;-87
2022/11/08 04:56:04;;;;;;;5.53;2.15;;;;;;;;;;4986340;28;20489;-85
2022/11/08 04:58:40;;;;;;;5.25;2.15;;;;;;;;;;4969213;28;20031;-84
2022/11/08 05:01:06;;;;;;;6.72;2.20;;;;;;;;;;4964604;28;20519;-84
2022/11/08 05:03:32;;;;;;;5.03;1.98;;;;;;;;;;4971508;28;20489;-83
2022/11/08 05:06:02;;;;;;;6.90;2.33;;;;;;;;;;4970109;28;20042;-83
2022/11/08 05:08:27;;;;;;;5.38;2.08;;;;;;;;;;4968677;28;20037;-83
2022/11/08 05:11:02;;;;;;;5.30;2.10;;;;;;;;;;4984823;28;21889;-82
2022/11/08 05:13:27;;;;;;;5.30;2.17;;;;;;;;;;4972769;28;20107;-83
2022/11/08 05:15:53;;;;;;;5.32;2.35;;;;;;;;;;4966528;28;20493;-83
2022/11/08 05:18:20;;;;;;;7.10;2.30;;;;;;;;;;4995491;28;20037;-82
2022/11/08 05:23:39;;;;;;;4.22;2.20;;;;;;;;;;4990485;28;20089;-82
2022/11/08 05:26:05;;;;;;;7.13;2.20;;;;;;;;;;4971877;28;20436;-82
2022/11/08 05:28:30;;;;;;;5.85;2.50;;;;;;;;;;4973126;28;20429;-83
2022/11/08 05:30:56;;;;;;;4.85;2.13;;;;;;;;;;4981745;28;20042;-82
2022/11/08 05:33:24;;;;;;;4.85;2.30;;;;;;;;;;4972604;28;20073;-82
2022/11/08 05:35:51;;;;;;;9.68;2.60;;;;;;;;;;4958010;28;20056;-82
2022/11/08 05:38:16;;;;;;;5.03;2.65;;;;;;;;;;4996697;28;20030;-83
2022/11/08 05:40:42;;;;;;;5.10;2.50;;;;;;;;;;4996165;28;20582;-82
2022/11/08 05:43:07;;;;;;;6.88;2.78;;;;;;;;;;4972412;28;20378;-82
2022/11/08 05:45:33;;;;;;;5.63;2.67;;;;;;;;;;4970183;28;20102;-82
2022/11/08 05:48:02;;;;;;;5.63;2.38;;;;;;;;;;4983072;28;20100;-82
2022/11/08 05:50:32;;;;;;;6.15;2.40;;;;;;;;;;4979527;28;20041;-83
2022/11/08 05:52:57;;;;;;;5.78;2.25;;;;;;;;;;4973758;28;20045;-83
2022/11/08 05:55:22;;;;;;;6.47;2.50;;;;;;;;;;4993791;28;20907;-83
2022/11/08 05:57:48;;;;;;;5.32;2.60;;;;;;;;;;4996754;28;20383;-82
2022/11/08 06:00:13;;;;;;;6.20;2.75;;;;;;;;;;4965833;28;20045;-83
2022/11/08 06:02:39;;;;;;;4.82;2.85;;;;;;;;;;4989204;28;20081;-83
2022/11/08 06:05:05;;;;;;;7.05;2.65;;;;;;;;;;4986459;28;20125;-83
2022/11/08 06:07:31;;;;;;;5.55;2.60;;;;;;;;;;4989008;28;20489;-82
2022/11/08 06:09:57;;;;;;;5.35;2.67;;;;;;;;;;4989672;28;20050;-82
2022/11/08 06:12:25;;;;;;;6.43;2.65;;;;;;;;;;4983789;28;20878;-82
2022/11/08 06:14:51;;;;;;;5.05;2.20;;;;;;;;;;4988796;28;20374;-82
2022/11/08 06:17:16;;;;;;;4.68;2.50;;;;;;;;;;4971289;28;20030;-84
2022/11/08 06:19:41;;;;;;;5.70;2.95;;;;;;;;;;4968686;28;20546;-83
2022/11/08 06:22:07;;;;;;;6.70;2.90;;;;;;;;;;4995982;28;20034;-81
2022/11/08 06:24:32;;;;;;;5.18;2.70;;;;;;;;;;4972604;28;20040;-81
2022/11/08 06:26:58;;;;;;;9.65;2.65;;;;;;;;;;4971220;28;20033;-82
2022/11/08 06:29:23;;;;;;;6.43;2.55;;;;;;;;;;4982120;28;20030;-82
2022/11/08 06:31:48;;;;;;;6.03;2.60;;;;;;;;;;4983837;28;20524;-82
2022/11/08 06:34:14;;;;;;;8.23;3.10;;;;;;;;;;4970568;28;20065;-82
2022/11/08 06:36:39;;;;;;;6.13;2.83;;;;;;;;;;4978839;28;20076;-81
2022/11/08 06:39:04;;;;;;;4.70;2.53;;;;;;;;;;4968524;28;20113;-81
2022/11/08 06:41:33;;;;;;;6.13;2.55;;;;;;;;;;4994175;28;20088;-82
2022/11/08 06:43:58;;;;;;;5.32;2.90;;;;;;;;;;4967170;28;20113;-80
2022/11/08 06:46:24;;;;;;;6.43;2.58;;;;;;;;;;4995135;28;20113;-81
2022/11/08 06:48:50;;;;;;;5.72;2.70;;;;;;;;;;4957887;28;20433;-80
2022/11/08 06:51:15;;;;;;;4.68;2.60;;;;;;;;;;4992018;28;20046;-81
2022/11/08 06:53:41;;;;;;;4.97;2.65;;;;;;;;;;4979666;28;20409;-80
2022/11/08 06:56:06;;;;;;;5.68;2.67;;;;;;;;;;4966360;28;20044;-81
2022/11/08 06:58:32;;;;;;;5.22;2.88;;;;;;;;;;4971704;28;20049;-80
2022/11/08 07:00:57;;;;;;;7.55;3.08;;;;;;;;;;4986557;28;20042;-80
2022/11/08 07:03:25;;;;;;;7.97;3.40;;;;;;;;;;4969571;28;20172;-82
2022/11/08 07:05:50;;;;;;;9.07;3.20;;;;;;;;;;4966679;28;20058;-81
2022/11/08 07:08:15;;;;;;;9.63;3.25;;;;;;;;;;4967637;28;20034;-80
2022/11/08 07:10:41;;;;;;;8.00;3.05;;;;;;;;;;4975594;28;20035;-80
2022/11/08 07:13:09;;;;;;;5.72;3.33;;;;;;;;;;4983444;28;20050;-81
2022/11/08 07:15:35;;;;;;;6.38;2.75;;;;;;;;;;4977950;28;20238;-81
2022/11/08 07:18:02;;;;;;;5.75;2.75;;;;;;;;;;4959682;28;20145;-81
2022/11/08 07:20:27;;;;;;;8.55;3.03;;;;;;;;;;4945212;28;20503;-81
2022/11/08 07:22:55;;;;;;;6.90;2.72;;;;;;;;;;4958568;28;20042;-81
2022/11/08 07:25:20;;;;;;;5.60;2.47;;;;;;;;;;4954812;28;20034;-80
2022/11/08 07:27:46;;;;;;;5.72;2.40;;;;;;;;;;4970645;28;20507;-81
2022/11/08 07:30:11;;;;;;;6.13;3.03;;;;;;;;;;4936916;28;20075;-81
2022/11/08 07:32:37;;;;;;;7.35;2.63;;;;;;;;;;4952005;28;20390;-80
2022/11/08 07:35:03;;;;;;;6.05;2.58;;;;;;;;;;4961095;28;20045;-80
2022/11/08 07:37:28;;;;;;;4.55;2.58;;;;;;;;;;4967878;28;20038;-81
2022/11/08 07:39:53;;;;;;;5.32;2.42;;;;;;;;;;4981575;28;20049;-81
2022/11/08 07:42:19;;;;;;;6.47;2.78;;;;;;;;;;4973602;28;20038;-81
2022/11/08 07:44:44;;;;;;;7.95;2.40;;;;;;;;;;4963001;28;20084;-81
2022/11/08 07:47:09;;;;;;;5.97;2.78;;;;;;;;;;4962370;28;20101;-80
2022/11/08 07:49:35;;;;;;;7.78;2.33;;;;;;;;;;4966582;28;20043;-81
2022/11/08 07:52:09;;;;;;;5.88;2.88;;;;;;;;;;4965851;28;20083;-80
2022/11/08 07:54:35;;;;;;;5.82;2.40;;;;;;;;;;4980890;28;20042;-81
2022/11/08 07:57:00;;;;;;;6.47;2.83;;;;;;;;;;4965054;28;20030;-82
2022/11/08 07:59:25;;;;;;;5.95;2.08;;;;;;;;;;4977300;28;20057;-81
2022/11/08 08:01:50;;;;;;;8.35;2.70;;;;;;;;;;4959934;28;20092;-82
2022/11/08 08:04:16;;;;;;;6.35;2.35;;;;;;;;;;4961952;28;20490;-81
2022/11/08 08:06:41;;;;;;;5.80;2.25;;;;;;;;;;4975559;28;20102;-81
2022/11/08 08:09:07;;;;;;;4.53;1.90;;;;;;;;;;4968179;28;20050;-80
2022/11/08 08:11:32;;;;;;;3.97;1.98;;;;;;;;;;4964892;28;20055;-82
2022/11/08 08:13:57;;;;;;;3.95;1.70;;;;;;;;;;4979518;28;20026;-81
2022/11/08 08:16:23;;;;;;;5.40;1.80;;;;;;;;;;4976803;28;20108;-82
2022/11/08 08:18:51;;;;;;;5.07;1.60;;;;;;;;;;4972721;28;20092;-81
2022/11/08 08:21:17;;;;;;;4.63;2.05;;;;;;;;;;4979368;28;20031;-81
2022/11/08 08:23:42;;;;;;;4.57;1.85;;;;;;;;;;4965827;28;20469;-82
2022/11/08 08:26:08;;;;;;;7.05;2.00;;;;;;;;;;4977361;28;20433;-82
2022/11/08 08:28:33;;;;;;;3.72;1.50;;;;;;;;;;4975358;28;20034;-82
2022/11/08 08:30:59;;;;;;;4.22;1.60;;;;;;;;;;4968357;28;20383;-83
2022/11/08 08:33:24;;;;;;;5.07;1.67;;;;;;;;;;4960428;28;21187;-80
2022/11/08 08:35:53;;;;;;;3.67;1.60;;;;;;;;;;4981676;28;20038;-82
2022/11/08 08:38:19;;;;;;;3.05;1.50;;;;;;;;;;4973929;28;20473;-80
2022/11/08 08:40:44;;;;;;;5.82;1.90;;;;;;;;;;4977525;28;20066;-80
2022/11/08 08:43:09;;;;;;;5.75;1.70;;;;;;;;;;4972735;28;20042;-80
2022/11/08 08:45:35;;;;;;;3.25;1.60;;;;;;;;;;4989289;28;20027;-80
2022/11/08 08:48:01;;;;;;;3.70;1.70;;;;;;;;;;4992508;28;20512;-80
2022/11/08 08:50:28;;;;;;;5.10;1.40;;;;;;;;;;4973905;28;20039;-80
2022/11/08 08:52:58;;;;;;;7.00;1.58;;;;;;;;;;4961037;28;20493;-81
2022/11/08 08:55:23;;;;;;;4.43;1.58;;;;;;;;;;4989514;28;20506;-81
2022/11/08 08:57:49;;;;;;;4.80;1.92;;;;;;;;;;4960723;28;20095;-81
2022/11/08 09:00:15;;;;;;;4.72;1.60;;;;;;;;;;4958143;28;20773;-81
2022/11/08 09:02:41;;;;;;;3.92;1.38;;;;;;;;;;4964999;28;20030;-81
2022/11/08 09:05:07;;;;;;;4.70;1.70;;;;;;;;;;4980925;28;20498;-81
2022/11/08 09:07:35;;;;;;;3.42;1.30;;;;;;;;;;4975808;28;20114;-81
2022/11/08 09:10:00;;;;;;;6.00;1.70;;;;;;;;;;4974140;28;20122;-81
2022/11/08 09:12:26;;;;;;;3.47;1.25;;;;;;;;;;4964062;28;20045;-81
2022/11/08 09:15:15;;;;;;;4.43;1.42;;;;;;;;;;4982603;28;20509;-81
2022/11/08 09:17:42;;;;;;;4.65;1.40;;;;;;;;;;4929567;28;20040;-81
2022/11/08 09:20:09;;;;;;;3.95;1.35;;;;;;;;;;4949169;28;20047;-81
2022/11/08 09:22:35;;;;;;;3.13;1.20;;;;;;;;;;4930476;28;20066;-81
2022/11/08 09:25:00;;;;;;;4.82;1.45;;;;;;;;;;4912230;29;20286;-82
2022/11/08 09:27:28;;;;;;;2.67;1.10;;;;;;;;;;4932017;29;20496;-82
2022/11/08 09:29:53;;;;;;;3.50;1.17;;;;;;;;;;4921648;28;20039;-81
2022/11/08 09:32:19;;;;;;;3.28;1.40;;;;;;;;;;4940722;28;20046;-82
2022/11/08 09:34:44;;;;;;;4.78;1.40;;;;;;;;;;4934385;28;20135;-82
2022/11/08 09:37:09;;;;;;;3.42;1.10;;;;;;;;;;4933207;28;20031;-80
2022/11/08 09:39:35;;;;;;;3.67;1.10;;;;;;;;;;4943892;28;20031;-80
2022/11/08 09:45:29;;;;;;;3.60;1.13;;;;;;;;;;4936666;28;20055;-81
2022/11/08 09:47:58;;;;;;;4.60;1.02;;;;;;;;;;4952202;28;21015;-80
2022/11/08 09:50:29;;;;;;;4.97;1.17;;;;;;;;;;4920700;28;20429;-81
2022/11/08 09:53:18;;;;;;;4.05;1.10;;;;;;;;;;4938543;28;22304;-81
2022/11/08 09:55:51;;;;;;;3.15;1.33;;;;;;;;;;4958121;28;20574;-81
2022/11/08 09:58:37;;;;;;;4.07;1.30;;;;;;;;;;4967882;28;20038;-81
2022/11/08 10:01:03;;;;;;;3.45;1.10;;;;;;;;;;4960962;28;20114;-81
2022/11/08 10:03:29;;;;;;;4.82;1.38;;;;;;;;;;4968710;28;20145;-81
2022/11/08 10:06:32;;;;;;;3.03;1.00;;;;;;;;;;4967900;28;20055;-81
2022/11/08 10:09:15;;;;;;;4.55;1.20;;;;;;;;;;4965820;28;20035;-83
2022/11/08 10:12:05;;;;;;;3.30;1.05;;;;;;;;;;4976630;28;21081;-81
2022/11/08 10:14:56;;;;;;;1.98;0.80;;;;;;;;;;4956534;28;20035;-82
2022/11/08 10:17:42;;;;;;;4.30;1.02;;;;;;;;;;4966326;28;20041;-81
2022/11/08 10:20:12;;;;;;;4.60;1.20;;;;;;;;;;4942057;28;20041;-82
2022/11/08 10:23:05;;;;;;;6.32;1.00;;;;;;;;;;4978514;28;20125;-82
2022/11/08 10:25:44;;;;;;;4.05;1.55;;;;;;;;;;4993193;28;20059;-81
2022/11/08 10:28:18;;;;;;;5.00;0.90;;;;;;;;;;4963657;28;20417;-82
2022/11/08 10:30:47;;;;;;;5.07;1.10;;;;;;;;;;4992506;28;20043;-81
2022/11/08 10:33:21;;;;;;;4.40;1.17;;;;;;;;;;4966113;28;20031;-82
2022/11/08 10:35:57;;;;;;;2.95;1.00;;;;;;;;;;4969761;28;20053;-80
2022/11/08 10:38:29;;;;;;;2.47;0.90;;;;;;;;;;4960731;28;20474;-81
2022/11/08 10:41:19;;;;;;;3.55;1.15;;;;;;;;;;4985641;28;20034;-80
2022/11/08 10:43:58;;;;;;;6.93;1.10;;;;;;;;;;4955662;28;20047;-81
2022/11/08 10:46:32;;;;;;;3.28;0.95;;;;;;;;;;4958792;28;20078;-81
2022/11/08 10:49:07;;;;;;;2.47;0.88;;;;;;;;;;4954053;28;20133;-81
2022/11/08 10:51:33;;;;;;;3.60;0.90;;;;;;;;;;4974536;28;20059;-81
2022/11/08 10:53:59;;;;;;;2.83;0.98;;;;;;;;;;4940803;28;20063;-81
2022/11/08 10:56:25;;;;;;;4.47;0.88;;;;;;;;;;4970682;28;20034;-82
2022/11/08 10:58:50;;;;;;;2.67;0.90;;;;;;;;;;4962069;28;20121;-81
2022/11/08 11:01:19;;;;;;;3.38;0.88;;;;;;;;;;4983835;28;20102;-81
2022/11/08 11:03:48;;;;;;;6.93;1.30;;;;;;;;;;4963853;28;20417;-81
2022/11/08 11:06:31;;;;;;;2.58;0.90;;;;;;;;;;4961586;28;20078;-80
2022/11/08 11:08:59;;;;;;;4.72;1.05;;;;;;;;;;4996504;28;20030;-82
2022/11/08 11:11:30;;;;;;;2.83;0.98;;;;;;;;;;4990828;28;20043;-82
2022/11/08 11:14:13;;;;;;;3.22;0.85;;;;;;;;;;4978970;28;20061;-81
2022/11/08 11:16:48;;;;;;;2.88;0.90;;;;;;;;;;4954429;28;20118;-81
2022/11/08 11:19:14;;;;;;;3.65;0.80;;;;;;;;;;4955498;28;20035;-82
2022/11/08 11:21:40;;;;;;;2.47;0.80;;;;;;;;;;4959598;28;20385;-83
2022/11/08 11:24:16;;;;;;;2.78;0.90;;;;;;;;;;4948617;28;20035;-81
2022/11/08 11:26:47;;;;;;;2.42;0.70;;;;;;;;;;4948551;28;20564;-82
2022/11/08 11:29:16;;;;;;;2.42;0.80;;;;;;;;;;4965683;28;20090;-83
2022/11/08 11:31:44;;;;;;;3.28;0.70;;;;;;;;;;4940986;28;20648;-82
2022/11/08 11:34:15;;;;;;;2.45;0.80;;;;;;;;;;4952670;28;20038;-82
2022/11/08 11:37:08;;;;;;;4.03;0.75;;;;;;;;;;4974649;28;20081;-81
2022/11/08 11:39:44;;;;;;;2.50;0.70;;;;;;;;;;4966775;28;20048;-83
2022/11/08 11:42:15;;;;;;;2.85;0.70;;;;;;;;;;4971891;28;20094;-81
2022/11/08 11:44:50;;;;;;;2.28;0.57;;;;;;;;;;4973134;28;20479;-80
2022/11/08 11:47:36;;;;;;;3.05;0.70;;;;;;;;;;4973124;28;20066;-82
2022/11/08 11:50:20;;;;;;;2.38;0.70;;;;;;;;;;4964023;28;20043;-82
2022/11/08 11:52:45;;;;;;;2.55;0.80;;;;;;;;;;4974932;28;20409;-80
2022/11/08 11:55:15;;;;;;;2.38;0.60;;;;;;;;;;4960458;28;20031;-83
2022/11/08 11:58:11;;;;;;;2.03;0.77;;;;;;;;;;4984434;28;20038;-82
2022/11/08 12:00:41;;;;;;;2.65;0.57;;;;;;;;;;4974437;28;20038;-82
2022/11/08 12:03:13;;;;;;;3.08;0.73;;;;;;;;;;4967443;28;20038;-82
2022/11/08 12:06:20;;;;;;;3.28;0.70;;;;;;;;;;4987199;28;20605;-83
2022/11/08 12:08:53;;;;;;;3.00;0.65;;;;;;;;;;4978856;28;20077;-83
2022/11/08 12:11:31;;;;;;;2.20;0.60;;;;;;;;;;4978181;28;20561;-82
2022/11/08 12:14:44;;;;;;;2.72;0.68;;;;;;;;;;4980669;28;20030;-83
2022/11/08 12:17:18;;;;;;;2.03;0.63;;;;;;;;;;4904480;29;20834;-83
2022/11/08 12:20:13;;;;;;;3.80;0.90;;;;;;;;;;4907101;29;20206;-82
2022/11/08 12:22:50;;;;;;;2.85;0.82;;;;;;;;;;4906859;29;20487;-82
2022/11/08 12:25:23;;;;;;;3.92;1.02;;;;;;;;;;4907587;29;20040;-82
2022/11/08 12:28:09;;;;;;;2.20;0.70;;;;;;;;;;4894599;29;20044;-83
2022/11/08 12:30:57;;;;;;;1.70;0.73;;;;;;;;;;4892653;29;20543;-83
2022/11/08 12:33:29;;;;;;;2.22;0.60;;;;;;;;;;4896784;29;20123;-81
2022/11/08 12:36:19;;;;;;;2.00;0.70;;;;;;;;;;4891680;29;20052;-81
2022/11/08 12:39:00;;;;;;;3.70;0.88;;;;;;;;;;4858452;29;20161;-82
2022/11/08 12:41:55;;;;;;;3.13;0.75;;;;;;;;;;4888153;29;20050;-82
2022/11/08 12:44:23;;;;;;;2.88;0.60;;;;;;;;;;4885695;29;21002;-82
2022/11/08 12:47:07;;;;;;;4.32;0.80;;;;;;;;;;4911445;28;20080;-81
2022/11/08 12:49:35;;;;;;;1.95;0.60;;;;;;;;;;4990217;28;20046;-82
2022/11/08 12:52:19;;;;;;;1.98;0.70;;;;;;;;;;4990621;28;20517;-82
2022/11/08 12:54:54;;;;;;;2.78;0.70;;;;;;;;;;4978496;28;20447;-82
2022/11/08 12:57:26;;;;;;;3.35;1.10;;;;;;;;;;4965702;28;20501;-82
2022/11/08 13:00:03;;;;;;;2.42;0.88;;;;;;;;;;4970439;28;20034;-82
2022/11/08 13:02:31;;;;;;;2.83;0.68;;;;;;;;;;4973530;28;20144;-82
2022/11/08 13:05:02;;;;;;;2.92;0.85;;;;;;;;;;4977342;28;20087;-82
2022/11/08 13:07:45;;;;;;;2.97;0.65;;;;;;;;;;4992681;28;20542;-82
2022/11/08 13:10:35;;;;;;;2.45;0.73;;;;;;;;;;4950522;28;20106;-82
2022/11/08 13:13:12;;;;;;;3.22;0.90;;;;;;;;;;4965937;28;20062;-82
2022/11/08 13:16:16;;;;;;;2.28;0.57;;;;;;;;;;4980685;28;20052;-83
2022/11/08 13:18:58;;;;;;;3.78;0.80;;;;;;;;;;4980360;28;20988;-82
2022/11/08 13:21:29;;;;;;;2.05;0.80;;;;;;;;;;4983281;28;20038;-82
2022/11/08 13:24:00;;;;;;;3.67;0.80;;;;;;;;;;4980792;28;20045;-81
2022/11/08 13:26:27;;;;;;;2.03;0.50;;;;;;;;;;4968702;28;22227;-83
2022/11/08 13:28:53;;;;;;;3.30;0.90;;;;;;;;;;4958568;28;20367;-82
2022/11/08 13:31:18;;;;;;;2.28;0.73;;;;;;;;;;4984216;28;20034;-81
2022/11/08 13:34:08;;;;;;;2.70;0.47;;;;;;;;;;4997056;28;20113;-82
2022/11/08 13:36:42;;;;;;;3.00;0.60;;;;;;;;;;4978488;28;20039;-82
2022/11/08 13:39:36;;;;;;;2.50;0.60;;;;;;;;;;4978808;28;20038;-82
2022/11/08 13:42:04;;;;;;;2.80;0.70;;;;;;;;;;4995632;28;20050;-81
2022/11/08 13:44:54;;;;;;;2.20;0.70;;;;;;;;;;4979768;28;20038;-81
2022/11/08 13:47:31;;;;;;;2.53;0.70;;;;;;;;;;4976439;28;20617;-80
2022/11/08 13:50:36;;;;;;;2.75;0.90;;;;;;;;;;4981619;28;20042;-82
2022/11/08 13:53:20;;;;;;;1.95;0.57;;;;;;;;;;4969133;28;20038;-80
2022/11/08 13:55:49;;;;;;;4.10;0.70;;;;;;;;;;4979048;28;20052;-81
2022/11/08 13:58:35;;;;;;;2.35;0.68;;;;;;;;;;4993858;28;20128;-82
2022/11/08 14:01:03;;;;;;;2.00;0.70;;;;;;;;;;4983778;28;20498;-82
2022/11/08 14:03:31;;;;;;;;;;;;;;;;;;4978634;28;20061;-82
2022/11/08 14:06:26;;;;;;;3.22;1.00;;;;;;;;;;4981298;28;20016;-81
2022/11/08 14:09:10;;;;;;;3.10;0.70;;;;;;;;;;4944674;28;20050;-82
2022/11/08 14:11:47;;;;;;;2.63;0.80;;;;;;;;;;4994253;28;20042;-81
2022/11/08 14:14:21;;;;;;;3.60;0.90;;;;;;;;;;4979456;28;20034;-82
2022/11/08 14:17:08;;;;;;;3.75;0.93;;;;;;;;;;4981645;28;20046;-82
2022/11/08 14:19:39;;;;;;;4.05;0.70;;;;;;;;;;4977616;28;20042;-82
2022/11/08 14:22:16;;;;;;;2.38;0.80;;;;;;;;;;4968436;28;20058;-82
2022/11/08 14:24:42;;;;;;;3.75;1.13;;;;;;;;;;4980671;28;20052;-82
2022/11/08 14:27:10;;;;;;;2.70;0.90;;;;;;;;;;4972628;28;20030;-82
2022/11/08 14:29:36;;;;;;;4.25;1.00;;;;;;;;;;4980822;28;20034;-82
2022/11/08 14:32:26;;;;;;;3.25;1.20;;;;;;;;;;4986788;28;20531;-82
2022/11/08 14:34:51;;;;;;;2.55;0.80;;;;;;;;;;4979432;28;20145;-82
2022/11/08 14:37:24;;;;;;;3.45;0.90;;;;;;;;;;4980155;28;20120;-82
2022/11/08 14:39:49;;;;;;;2.10;0.70;;;;;;;;;;4971946;28;20034;-82
2022/11/08 14:42:39;;;;;;;2.00;0.80;;;;;;;;;;4985311;28;20881;-82
2022/11/08 14:45:11;;;;;;;2.42;0.82;;;;;;;;;;4924079;29;20043;-82
2022/11/08 14:47:39;;;;;;;1.83;0.70;;;;;;;;;;4919503;28;20039;-81
2022/11/08 14:50:15;;;;;;;2.53;0.90;;;;;;;;;;4919433;28;20131;-81
2022/11/08 14:52:40;;;;;;;2.22;0.80;;;;;;;;;;4912938;28;20043;-82
2022/11/08 14:55:07;;;;;;;3.10;0.98;;;;;;;;;;4913277;29;20046;-82
2022/11/08 14:57:35;;;;;;;3.60;0.90;;;;;;;;;;4923814;28;20078;-82
2022/11/08 15:00:23;;;;;;;3.03;1.42;;;;;;;;;;4936606;28;20039;-82
2022/11/08 15:02:52;;;;;;;2.25;0.90;;;;;;;;;;4931273;28;20046;-82
2022/11/08 15:05:29;;;;;;;2.90;0.70;;;;;;;;;;4934460;28;20047;-83
2022/11/08 15:07:55;;;;;;;2.70;0.90;;;;;;;;;;4919728;29;20070;-83
2022/11/08 15:10:21;;;;;;;2.35;0.80;;;;;;;;;;4923652;28;20876;-82
2022/11/08 15:12:49;;;;;;;2.70;0.95;;;;;;;;;;4933385;28;20153;-82
2022/11/08 15:15:24;;;;;;;3.40;1.10;;;;;;;;;;4921492;28;20043;-82
2022/11/08 15:18:13;;;;;;;4.30;1.00;;;;;;;;;;4920145;28;20043;-83
2022/11/08 15:20:39;;;;;;;2.65;0.80;;;;;;;;;;4922009;28;20043;-83
2022/11/08 15:23:41;;;;;;;3.53;0.70;;;;;;;;;;4965080;28;20117;-82